European Seaway — MPDG3 — position and weather

sailwx.info

Track history (hours):
 
Tides and Currents Weather Stations Pressure Air Temp Water Temp Dewpoint Dewpoint Depression Visibility Wind Speed Wind Dir Waves Ship Positions

European Seaway

Operator: P & O Ferries

Last reported at 2017-Aug-18 10:30 UTC. Time now 2017-Aug-18 10:51 UTC.
Position N 51°06' E 001°28'.

Length 179 m; draft 6.1 m.

Type: Passenger vessel. MMSI: 232001040.

Date/timePositionNaut miles runAvg speedWind from/ knotsBaromVisibWave heightAir tempDewpointWater temp
2017-Aug-18 10:30N 51°06' E 001°28'917.1
2017-Aug-18 10:00N 51°01' E 001°38'815.4
2017-Aug-18 09:31N 50°58' E 001°50'1 2.1
2017-Aug-18 09:00N 50°58' E 001°52'0 0.0
2017-Aug-18 08:31N 50°58' E 001°52'510.9
2017-Aug-18 08:01N 50°58' E 001°43'917.1
2017-Aug-18 07:30N 51°02' E 001°31'816.0
2017-Aug-18 07:00N 51°07' E 001°21'1 0.5
2017-Aug-18 05:54N 51°07' E 001°20'2 5.5
2017-Aug-18 05:31N 51°07' E 001°23'714.5
2017-Aug-18 05:01N 51°05' E 001°34'816.3
2017-Aug-18 04:31N 50°59' E 001°43'611.1
2017-Aug-18 04:00N 50°58' E 001°52'0 0.0
2017-Aug-18 03:30N 50°58' E 001°52'0 0.0
2017-Aug-18 03:00N 50°58' E 001°52'0 0.0
2017-Aug-18 02:30N 50°58' E 001°52'0 0.0
2017-Aug-18 02:00N 50°58' E 001°52'0 0.0
2017-Aug-18 01:30N 50°58' E 001°52'0 0.0
2017-Aug-18 01:00N 50°58' E 001°52'0 0.0
2017-Aug-18 00:30N 50°58' E 001°52'1 1.5
2017-Aug-18 00:00N 50°58' E 001°51'816.0
2017-Aug-17 23:30N 50°59' E 001°38'918.0
2017-Aug-17 23:00N 51°05' E 001°26'5 9.7
2017-Aug-17 22:30N 51°07' E 001°20'0 0.0
2017-Aug-17 22:00N 51°07' E 001°20'0 0.6
2017-Aug-17 21:30N 51°07' E 001°20'612.6
2017-Aug-17 21:00N 51°05' E 001°30'917.3
2017-Aug-17 20:30N 51°00' E 001°41'713.3
2017-Aug-17 20:00N 50°58' E 001°51'0 0.5
2017-Aug-17 19:30N 50°58' E 001°52'0 0.0
2017-Aug-17 19:00N 50°58' E 001°52'713.7
2017-Aug-17 18:30N 50°58' E 001°41'816.8
2017-Aug-17 18:00N 51°03' E 001°30'8 6.7
2017-Aug-17 16:52N 51°07' E 001°20'0 0.1
2017-Aug-17 16:30N 51°07' E 001°20'3 5.5
2017-Aug-17 16:00N 51°07' E 001°24'917.3
2017-Aug-17 15:31N 51°02' E 001°36'816.9
2017-Aug-17 15:01N 50°58' E 001°48'2 4.1
2017-Aug-17 14:30N 50°58' E 001°51'0 0.0
2017-Aug-17 14:01N 50°58' E 001°51'2 3.4
2017-Aug-17 13:31N 50°58' E 001°48'815.7
2017-Aug-17 13:01N 51°00' E 001°36'917.6
2017-Aug-17 12:31N 51°06' E 001°25'4 7.5
2017-Aug-17 12:00N 51°07' E 001°20'0 0.0
2017-Aug-17 11:28N 51°07' E 001°20'1 2.8
2017-Aug-17 11:01N 51°07' E 001°22'917.4
2017-Aug-17 10:31N 51°02' E 001°34'917.1
2017-Aug-17 10:00N 50°58' E 001°45'3 7.0
2017-Aug-17 09:30N 50°58' E 001°51'0 0.0
2017-Aug-17 09:00N 50°58' E 001°51'4 8.1
2017-Aug-17 08:30N 50°58' E 001°45'918.2
2017-Aug-17 08:01N 51°02' E 001°32'917.0
2017-Aug-17 07:29N 51°07' E 001°20'0 0.3
2017-Aug-17 07:00N 51°07' E 001°20'0 0.0
2017-Aug-17 06:06N 51°07' E 001°20'0 0.1
2017-Aug-17 05:57N 51°07' E 001°20'3 7.7
2017-Aug-17 05:31N 51°07' E 001°25'917.8
2017-Aug-17 05:01N 51°02' E 001°37'816.1
2017-Aug-17 04:31N 50°58' E 001°49'2 3.4
2017-Aug-17 04:01N 50°58' E 001°52'0 0.0
2017-Aug-17 03:30N 50°58' E 001°52'0 0.0
2017-Aug-17 03:00N 50°58' E 001°52'0 0.0
2017-Aug-17 02:30N 50°58' E 001°52'0 0.0
2017-Aug-17 02:00N 50°58' E 001°52'0 0.0
2017-Aug-17 01:30N 50°58' E 001°52'0 0.0
2017-Aug-17 01:00N 50°58' E 001°52'0 0.0
2017-Aug-17 00:30N 50°58' E 001°52'2 3.9
2017-Aug-17 00:00N 50°58' E 001°49'815.5
2017-Aug-16 23:30N 50°60' E 001°37'918.6
2017-Aug-16 23:00N 51°05' E 001°25'4 6.8
2017-Aug-16 22:30N 51°07' E 001°20'0 0.0
2017-Aug-16 22:00N 51°07' E 001°20'0 1.0
2017-Aug-16 21:30N 51°07' E 001°21'612.6
2017-Aug-16 21:00N 51°06' E 001°31'815.9
2017-Aug-16 20:30N 51°00' E 001°40'714.7
2017-Aug-16 20:01N 50°58' E 001°51'1 1.1
2017-Aug-16 19:30N 50°58' E 001°52'0 0.0
2017-Aug-16 19:00N 50°58' E 001°52'2 4.6
2017-Aug-16 18:30N 50°58' E 001°48'918.7
2017-Aug-16 18:00N 51°01' E 001°34'918.6
2017-Aug-16 17:30N 51°06' E 001°22'2 3.0
2017-Aug-16 17:00N 51°07' E 001°20'0 0.0
2017-Aug-16 16:30N 51°07' E 001°20'2 3.8
2017-Aug-16 16:01N 51°07' E 001°23'816.4
2017-Aug-16 15:30N 51°02' E 001°34'917.9
2017-Aug-16 15:00N 50°58' E 001°46'3 5.9
2017-Aug-16 14:30N 50°58' E 001°51'0 0.0
2017-Aug-16 14:00N 50°58' E 001°51'2 3.6
2017-Aug-16 13:30N 50°58' E 001°48'714.6
2017-Aug-16 13:00N 50°60' E 001°37'816.3
2017-Aug-16 12:30N 51°05' E 001°26'5 9.5
2017-Aug-16 12:00N 51°07' E 001°20'0 0.0
2017-Aug-16 11:29N 51°07' E 001°20'0 0.0
2017-Aug-16 10:58N 51°07' E 001°20'510.9
2017-Aug-16 10:30N 51°07' E 001°28'918.1
2017-Aug-16 10:00N 51°01' E 001°39'816.1
2017-Aug-16 09:30N 50°58' E 001°51'0 0.5
2017-Aug-16 09:00N 50°58' E 001°52'4 4.2
2017-Aug-16 08:00N 50°58' E 001°45'816.7
2017-Aug-16 07:30N 51°01' E 001°33'816.5
2017-Aug-16 07:00N 51°06' E 001°23'2 3.7
2017-Aug-16 06:30N 51°07' E 001°20'0 0.0
2017-Aug-16 06:00N 51°07' E 001°20'2 4.2
2017-Aug-16 05:31N 51°07' E 001°23'917.8
2017-Aug-16 05:01N 51°03' E 001°36'816.9
2017-Aug-16 04:30N 50°58' E 001°47'3 5.8
2017-Aug-16 04:01N 50°58' E 001°52'0 0.0
2017-Aug-16 03:31N 50°58' E 001°52'0 0.0
2017-Aug-16 03:01N 50°58' E 001°52'0 0.0
2017-Aug-16 02:31N 50°58' E 001°52'0 0.0
2017-Aug-16 02:01N 50°58' E 001°52'0 0.0
2017-Aug-16 01:31N 50°58' E 001°52'0 0.0
2017-Aug-16 01:01N 50°58' E 001°52'0 0.0
2017-Aug-16 00:31N 50°58' E 001°52'510.4
2017-Aug-16 00:00N 50°58' E 001°43'917.1
2017-Aug-15 23:30N 51°01' E 001°31'917.5
2017-Aug-15 23:00N 51°07' E 001°21'0 0.9
2017-Aug-15 22:30N 51°07' E 001°20'0 0.0
2017-Aug-15 22:00N 51°07' E 001°20'2 4.5
2017-Aug-15 21:30N 51°07' E 001°24'4 7.5
2017-Aug-15 21:00N 51°05' E 001°28'918.7
2017-Aug-15 20:30N 50°60' E 001°40'714.4
2017-Aug-15 20:01N 50°58' E 001°52'0 0.2
2017-Aug-15 19:30N 50°58' E 001°52'0 0.0
2017-Aug-15 19:00N 50°58' E 001°52'2 3.0
2017-Aug-15 18:31N 50°58' E 001°49'917.3
2017-Aug-15 18:00N 50°60' E 001°36'918.0
2017-Aug-15 17:31N 51°06' E 001°25'3 6.8
2017-Aug-15 17:00N 51°07' E 001°20'0 0.0
2017-Aug-15 16:27N 51°07' E 001°20'1 2.5
2017-Aug-15 16:00N 51°07' E 001°22'713.2
2017-Aug-15 15:30N 51°04' E 001°31'918.3
2017-Aug-15 15:00N 50°59' E 001°43'510.1
2017-Aug-15 14:30N 50°58' E 001°51'0 0.0
2017-Aug-15 14:00N 50°58' E 001°51'0 0.0
2017-Aug-15 13:30N 50°58' E 001°51'510.7
2017-Aug-15 13:00N 50°58' E 001°42'816.4
2017-Aug-15 12:30N 51°01' E 001°31'917.2
2017-Aug-15 12:00N 51°07' E 001°20'1 1.8
2017-Aug-15 11:30N 51°07' E 001°20'0 0.0
2017-Aug-15 11:00N 51°07' E 001°20'2 4.3
2017-Aug-15 10:30N 51°07' E 001°23'816.1
2017-Aug-15 10:00N 51°03' E 001°34'816.6
2017-Aug-15 09:31N 50°58' E 001°45'4 7.1
2017-Aug-15 09:00N 50°58' E 001°51'0 0.0
2017-Aug-15 08:31N 50°58' E 001°51'4 8.1
2017-Aug-15 08:00N 50°58' E 001°45'918.2
2017-Aug-15 07:30N 51°02' E 001°31'917.9
2017-Aug-15 07:00N 51°07' E 001°20'1 0.8
2017-Aug-15 06:20N 51°07' E 001°20'0 0.0
2017-Aug-15 06:00N 51°07' E 001°20'4 7.8
2017-Aug-15 05:31N 51°06' E 001°26'917.7
2017-Aug-15 05:01N 51°02' E 001°38'815.8
2017-Aug-15 04:31N 50°58' E 001°49'1 2.6
2017-Aug-15 03:58N 50°58' E 001°52'0 0.0
2017-Aug-15 03:28N 50°58' E 001°52'0 0.0
2017-Aug-15 02:58N 50°58' E 001°52'0 0.0
2017-Aug-15 02:28N 50°58' E 001°52'0 0.0
2017-Aug-15 01:58N 50°58' E 001°52'0 0.0
2017-Aug-15 01:28N 50°58' E 001°52'0 0.0
2017-Aug-15 00:58N 50°58' E 001°52'0 0.0
2017-Aug-15 00:28N 50°58' E 001°52'0 0.0
2017-Aug-15 00:00N 50°58' E 001°52'0 0.0
2017-Aug-14 23:28N 50°58' E 001°52'0 0.0
2017-Aug-14 22:58N 50°58' E 001°52'0 0.0
2017-Aug-14 22:28N 50°58' E 001°52'0 0.0
2017-Aug-14 21:58N 50°58' E 001°52'0 0.0
2017-Aug-14 21:28N 50°58' E 001°52'0 0.0
2017-Aug-14 20:55N 50°58' E 001°52'0 0.0
2017-Aug-14 20:28N 50°58' E 001°52'0 0.0
2017-Aug-14 19:58N 50°58' E 001°52'0 0.0
2017-Aug-14 19:25N 50°58' E 001°52'0 0.0
2017-Aug-14 18:58N 50°58' E 001°52'1 2.4
2017-Aug-14 18:30N 50°58' E 001°50'815.7
2017-Aug-14 18:01N 50°60' E 001°38'917.2
2017-Aug-14 17:31N 51°05' E 001°27'5 9.8
2017-Aug-14 17:00N 51°07' E 001°20'0 0.0
2017-Aug-14 16:30N 51°07' E 001°20'1 2.3
2017-Aug-14 16:00N 51°07' E 001°22'917.2
2017-Aug-14 15:30N 51°03' E 001°34'917.4
2017-Aug-14 15:01N 50°58' E 001°45'4 7.1
2017-Aug-14 14:30N 50°58' E 001°51'0 0.0
2017-Aug-14 14:00N 50°58' E 001°51'2 4.9
2017-Aug-14 13:30N 50°58' E 001°47'815.5
2017-Aug-14 13:00N 50°59' E 001°35'816.4
2017-Aug-14 12:30N 51°05' E 001°26'4 3.4
2017-Aug-14 11:16N 51°07' E 001°20'0 0.5
2017-Aug-14 11:00N 51°07' E 001°20'917.4
2017-Aug-14 10:31N 51°04' E 001°33'918.3
2017-Aug-14 10:01N 50°58' E 001°44'5 9.2
2017-Aug-14 09:30N 50°58' E 001°52'0 0.0
2017-Aug-14 09:00N 50°58' E 001°52'0 0.0
2017-Aug-14 08:30N 50°58' E 001°52'0 0.2
2017-Aug-14 07:48N 50°58' E 001°52'0 0.0
2017-Aug-14 07:30N 50°58' E 001°52'0 0.0
2017-Aug-14 07:00N 50°58' E 001°52'0 0.0
2017-Aug-14 06:27N 50°58' E 001°52'0 0.0
2017-Aug-14 06:00N 50°58' E 001°52'0 0.0
2017-Aug-14 05:30N 50°58' E 001°52'0 0.0
2017-Aug-14 05:00N 50°58' E 001°52'0 0.0
2017-Aug-14 04:31N 50°58' E 001°52'0 0.0
2017-Aug-14 04:00N 50°58' E 001°52'0 0.0
2017-Aug-14 03:31N 50°58' E 001°52'0 0.0
2017-Aug-14 03:01N 50°58' E 001°52'0 0.0
2017-Aug-14 02:31N 50°58' E 001°52'0 0.0
2017-Aug-14 02:01N 50°58' E 001°52'0 0.0
2017-Aug-14 01:31N 50°58' E 001°52'0 0.0
2017-Aug-14 01:01N 50°58' E 001°52'0 0.0
2017-Aug-14 00:31N 50°58' E 001°52'0 0.0
2017-Aug-14 00:01N 50°58' E 001°52'0 0.0
2017-Aug-13 23:30N 50°58' E 001°52'0 0.0
2017-Aug-13 23:01N 50°58' E 001°52'0 0.0
2017-Aug-13 22:31N 50°58' E 001°52'0 0.0
2017-Aug-13 22:00N 50°58' E 001°52'0 0.0
2017-Aug-13 21:31N 50°58' E 001°52'0 0.0
2017-Aug-13 21:01N 50°58' E 001°52'0 0.0
2017-Aug-13 20:30N 50°58' E 001°52'0 0.0
2017-Aug-13 20:00N 50°58' E 001°52'0 0.0
2017-Aug-13 19:31N 50°58' E 001°52'0 0.2
2017-Aug-13 19:01N 50°58' E 001°52'0 0.6
2017-Aug-13 18:31N 50°58' E 001°51'815.9
2017-Aug-13 18:00N 50°58' E 001°39'917.4
2017-Aug-13 17:30N 51°03' E 001°27'612.2
2017-Aug-13 17:00N 51°07' E 001°20'0 0.0
2017-Aug-13 16:28N 51°07' E 001°20'2 5.2
2017-Aug-13 16:00N 51°07' E 001°24'816.7
2017-Aug-13 15:30N 51°04' E 001°36'816.9
2017-Aug-13 15:00N 50°58' E 001°46'4 7.2
2017-Aug-13 14:30N 50°58' E 001°52'0 0.0
2017-Aug-13 14:00N 50°58' E 001°52'1 1.2
2017-Aug-13 13:30N 50°58' E 001°51'815.8
2017-Aug-13 13:00N 50°59' E 001°38'816.6
2017-Aug-13 12:30N 51°04' E 001°28'610.3
2017-Aug-13 11:56N 51°07' E 001°20'0 0.0
2017-Aug-13 11:30N 51°07' E 001°20'0 0.0
2017-Aug-13 11:00N 51°07' E 001°20'510.1
2017-Aug-13 10:30N 51°06' E 001°27'816.5
2017-Aug-13 10:00N 51°01' E 001°38'815.7
2017-Aug-13 09:31N 50°58' E 001°50'1 2.2
2017-Aug-13 09:00N 50°58' E 001°52'0 0.0
2017-Aug-13 08:30N 50°58' E 001°52'0 0.5
2017-Aug-13 08:00N 50°58' E 001°52'0 0.0
2017-Aug-13 07:31N 50°58' E 001°52'0 0.0
2017-Aug-13 07:00N 50°58' E 001°52'0 0.0
2017-Aug-13 06:30N 50°58' E 001°52'0 0.0
2017-Aug-13 06:00N 50°58' E 001°52'0 0.0
2017-Aug-13 05:30N 50°58' E 001°52'0 0.0
2017-Aug-13 05:00N 50°58' E 001°52'0 0.0
2017-Aug-13 04:30N 50°58' E 001°52'0 0.0
2017-Aug-13 04:00N 50°58' E 001°52'0 0.0
2017-Aug-13 03:30N 50°58' E 001°52'0 0.0
2017-Aug-13 03:00N 50°58' E 001°52'0 0.0
2017-Aug-13 02:30N 50°58' E 001°52'0 0.0
2017-Aug-13 02:00N 50°58' E 001°52'0 0.0
2017-Aug-13 01:30N 50°58' E 001°52'0 0.0
2017-Aug-13 01:00N 50°58' E 001°52'0 0.0
2017-Aug-13 00:30N 50°58' E 001°52'0 0.0
2017-Aug-13 00:00N 50°58' E 001°52'0 0.0
2017-Aug-12 23:30N 50°58' E 001°52'0 0.0
2017-Aug-12 23:00N 50°58' E 001°52'0 0.0
2017-Aug-12 22:30N 50°58' E 001°52'0 0.0
2017-Aug-12 22:00N 50°58' E 001°52'0 0.0
2017-Aug-12 21:30N 50°58' E 001°52'0 0.0
2017-Aug-12 21:00N 50°58' E 001°52'0 0.0
2017-Aug-12 20:30N 50°58' E 001°52'0 0.0
2017-Aug-12 20:00N 50°58' E 001°52'0 0.5
2017-Aug-12 19:30N 50°58' E 001°52'1 2.6
2017-Aug-12 19:00N 50°58' E 001°50'611.8
2017-Aug-12 18:31N 50°59' E 001°40'918.3
2017-Aug-12 18:01N 51°04' E 001°29'610.7
2017-Aug-12 17:26N 51°07' E 001°20'0 0.0
2017-Aug-12 16:52N 51°07' E 001°20'0 0.0
2017-Aug-12 16:30N 51°07' E 001°20'1 1.3
2017-Aug-12 16:00N 51°07' E 001°21'815.9
2017-Aug-12 15:30N 51°04' E 001°33'816.8
2017-Aug-12 15:01N 50°59' E 001°43'5 9.9
2017-Aug-12 14:30N 50°58' E 001°51'0 0.0
2017-Aug-12 14:00N 50°58' E 001°51'0 0.0
2017-Aug-12 13:30N 50°58' E 001°51'4 7.2
2017-Aug-12 13:00N 50°58' E 001°45'917.9
2017-Aug-12 12:31N 51°01' E 001°32'917.6
2017-Aug-12 12:00N 51°07' E 001°21'1 1.6
2017-Aug-12 11:29N 51°07' E 001°20'0 0.0
2017-Aug-12 10:59N 51°07' E 001°20'4 8.3
2017-Aug-12 10:30N 51°06' E 001°26'918.3
2017-Aug-12 10:00N 51°01' E 001°38'816.9
2017-Aug-12 09:30N 50°58' E 001°51'1 1.3
2017-Aug-12 09:00N 50°58' E 001°52'0 0.0
2017-Aug-12 08:30N 50°58' E 001°52'3 6.9
2017-Aug-12 08:01N 50°58' E 001°46'714.3
2017-Aug-12 07:30N 51°01' E 001°36'816.3
2017-Aug-12 07:00N 51°05' E 001°25'4 7.4
2017-Aug-12 06:30N 51°07' E 001°20'0 0.0
2017-Aug-12 05:56N 51°07' E 001°20'4 9.2
2017-Aug-12 05:31N 51°07' E 001°26'917.1
2017-Aug-12 05:01N 51°02' E 001°37'816.2
2017-Aug-12 04:30N 50°58' E 001°49'2 3.3
2017-Aug-12 04:00N 50°58' E 001°52'0 0.0
2017-Aug-12 03:30N 50°58' E 001°52'0 0.0
2017-Aug-12 03:00N 50°58' E 001°52'0 0.0
2017-Aug-12 02:30N 50°58' E 001°52'0 0.0
2017-Aug-12 02:00N 50°58' E 001°52'0 0.0
2017-Aug-12 01:30N 50°58' E 001°52'0 0.0
2017-Aug-12 01:00N 50°58' E 001°52'0 0.0
2017-Aug-12 00:30N 50°58' E 001°52'0 0.0
2017-Aug-12 00:00N 50°58' E 001°52'713.8
2017-Aug-11 23:31N 50°58' E 001°41'917.6
2017-Aug-11 23:00N 51°03' E 001°29'713.8
2017-Aug-11 22:30N 51°07' E 001°20'0 0.0
2017-Aug-11 22:00N 51°07' E 001°20'0 0.3
2017-Aug-11 21:30N 51°07' E 001°20'815.7
2017-Aug-11 21:00N 51°04' E 001°31'918.1
2017-Aug-11 20:30N 50°59' E 001°43'510.8
2017-Aug-11 20:00N 50°58' E 001°52'0 0.0
2017-Aug-11 19:30N 50°58' E 001°52'0 0.0
2017-Aug-11 19:00N 50°58' E 001°52'3 5.8
2017-Aug-11 18:30N 50°58' E 001°47'917.1
2017-Aug-11 18:00N 51°01' E 001°34'918.5
2017-Aug-11 17:30N 51°06' E 001°22'2 3.7
2017-Aug-11 17:00N 51°07' E 001°20'0 0.0
2017-Aug-11 16:29N 51°07' E 001°20'2 4.8
2017-Aug-11 16:01N 51°07' E 001°24'816.7
2017-Aug-11 15:31N 51°02' E 001°35'816.1
2017-Aug-11 15:01N 50°58' E 001°46'3 6.5
2017-Aug-11 14:30N 50°58' E 001°51'0 0.1
2017-Aug-11 13:30N 50°58' E 001°51'917.6
2017-Aug-11 13:00N 50°59' E 001°37'918.0
2017-Aug-11 12:30N 51°04' E 001°25'5 8.3
2017-Aug-11 11:55N 51°07' E 001°20'0 0.0
2017-Aug-11 11:29N 51°07' E 001°20'0 0.1
2017-Aug-11 11:00N 51°07' E 001°20'611.6
2017-Aug-11 10:31N 51°05' E 001°29'816.2
2017-Aug-11 10:00N 51°00' E 001°39'816.1
2017-Aug-11 09:30N 50°58' E 001°51'0 0.9
2017-Aug-11 09:00N 50°58' E 001°52'0 0.2
2017-Aug-11 08:30N 50°58' E 001°52'713.1
2017-Aug-11 08:00N 50°58' E 001°41'917.5
2017-Aug-11 07:30N 51°03' E 001°29'714.6
2017-Aug-11 07:00N 51°07' E 001°20'0 0.0
2017-Aug-11 06:26N 51°07' E 001°20'0 0.3
2017-Aug-11 06:00N 51°07' E 001°20'815.0
2017-Aug-11 05:31N 51°04' E 001°31'816.9
2017-Aug-11 05:01N 50°59' E 001°42'611.3
2017-Aug-11 04:27N 50°58' E 001°52'0 0.0
2017-Aug-11 04:00N 50°58' E 001°52'0 0.0
2017-Aug-11 03:27N 50°58' E 001°52'0 0.0
2017-Aug-11 03:00N 50°58' E 001°52'0 0.0
2017-Aug-11 02:30N 50°58' E 001°52'0 0.0
2017-Aug-11 02:00N 50°58' E 001°52'0 0.0
2017-Aug-11 01:30N 50°58' E 001°52'0 0.0
2017-Aug-11 01:00N 50°58' E 001°52'0 0.0
2017-Aug-11 00:30N 50°58' E 001°52'0 0.4
2017-Aug-11 00:00N 50°58' E 001°51'817.0
2017-Aug-10 23:30N 50°58' E 001°38'918.1
2017-Aug-10 23:01N 51°02' E 001°25'611.8
2017-Aug-10 22:30N 51°07' E 001°20'0 0.0
2017-Aug-10 22:00N 51°07' E 001°20'0 0.3
2017-Aug-10 21:29N 51°07' E 001°20'511.2
2017-Aug-10 21:00N 51°06' E 001°29'918.1
2017-Aug-10 20:31N 51°00' E 001°40'714.9
2017-Aug-10 20:00N 50°58' E 001°51'0 0.1
2017-Aug-10 19:30N 50°58' E 001°51'0 0.0
2017-Aug-10 19:00N 50°58' E 001°51'4 7.4
2017-Aug-10 18:31N 50°58' E 001°45'816.4
2017-Aug-10 18:00N 51°01' E 001°34'917.9
2017-Aug-10 17:30N 51°07' E 001°22'1 2.7
2017-Aug-10 17:00N 51°07' E 001°20'0 0.0
2017-Aug-10 16:30N 51°07' E 001°20'1 1.4
2017-Aug-10 16:00N 51°07' E 001°21'816.8
2017-Aug-10 15:31N 51°04' E 001°33'917.0
2017-Aug-10 15:01N 50°59' E 001°44'4 8.6
2017-Aug-10 14:30N 50°58' E 001°51'0 0.0
2017-Aug-10 14:00N 50°58' E 001°51'2 4.7
2017-Aug-10 13:31N 50°58' E 001°47'917.1
2017-Aug-10 13:00N 50°60' E 001°34'816.0
2017-Aug-10 12:30N 51°05' E 001°24'4 4.7
2017-Aug-10 11:45N 51°07' E 001°20'0 0.0
2017-Aug-10 11:26N 51°07' E 001°20'0 0.3
2017-Aug-10 10:59N 51°07' E 001°20'613.3
2017-Aug-10 10:31N 51°04' E 001°29'918.3
2017-Aug-10 10:01N 50°59' E 001°41'612.8
2017-Aug-10 09:30N 50°58' E 001°51'0 0.3
2017-Aug-10 09:00N 50°58' E 001°52'0 0.1
2017-Aug-10 08:31N 50°58' E 001°52'611.8
2017-Aug-10 08:00N 50°58' E 001°42'816.5
2017-Aug-10 07:30N 51°02' E 001°31'816.8
2017-Aug-10 07:00N 51°07' E 001°20'0 0.3
2017-Aug-10 06:30N 51°07' E 001°20'0 0.0
2017-Aug-10 06:00N 51°07' E 001°20'612.4
2017-Aug-10 05:30N 51°06' E 001°30'918.1
2017-Aug-10 05:00N 51°01' E 001°42'612.6
2017-Aug-10 04:31N 50°58' E 001°51'0 0.4
2017-Aug-10 04:00N 50°58' E 001°51'0 0.0
2017-Aug-10 03:30N 50°58' E 001°51'0 0.0
2017-Aug-10 03:00N 50°58' E 001°51'0 0.0
2017-Aug-10 02:30N 50°58' E 001°51'0 0.0
2017-Aug-10 02:00N 50°58' E 001°51'0 0.0
2017-Aug-10 01:30N 50°58' E 001°51'0 0.0
2017-Aug-10 01:00N 50°58' E 001°51'0 0.0
2017-Aug-10 00:30N 50°58' E 001°51'0 0.0
2017-Aug-10 00:00N 50°58' E 001°51'612.5
2017-Aug-09 23:30N 50°58' E 001°41'918.6
2017-Aug-09 23:00N 51°03' E 001°29'713.7
2017-Aug-09 22:30N 51°07' E 001°20'0 0.0
2017-Aug-09 21:59N 51°07' E 001°20'0 0.3
2017-Aug-09 21:30N 51°07' E 001°20'815.6
2017-Aug-09 21:01N 51°04' E 001°31'918.8
2017-Aug-09 20:31N 50°59' E 001°44'5 9.9
2017-Aug-09 20:00N 50°58' E 001°51'0 0.0
2017-Aug-09 19:30N 50°58' E 001°51'0 0.0
2017-Aug-09 19:00N 50°58' E 001°51'4 7.7
2017-Aug-09 18:31N 50°58' E 001°45'917.2
2017-Aug-09 18:01N 51°01' E 001°33'918.5
2017-Aug-09 17:31N 51°07' E 001°21'1 1.8
2017-Aug-09 16:59N 51°07' E 001°20'0 0.2
2017-Aug-09 16:31N 51°07' E 001°20'714.1
2017-Aug-09 16:00N 51°05' E 001°31'917.6
2017-Aug-09 15:30N 50°60' E 001°42'611.8
2017-Aug-09 15:00N 50°58' E 001°51'0 0.0
2017-Aug-09 14:30N 50°58' E 001°51'0 0.0
2017-Aug-09 14:00N 50°58' E 001°51'1 2.0
2017-Aug-09 13:30N 50°58' E 001°49'714.2
2017-Aug-09 13:01N 50°60' E 001°39'918.6
2017-Aug-09 12:31N 51°04' E 001°26'5 7.3
2017-Aug-09 11:53N 51°07' E 001°20'0 0.0
2017-Aug-09 11:13N 51°07' E 001°20'0 0.2
2017-Aug-09 10:58N 51°07' E 001°20'612.2
2017-Aug-09 10:31N 51°05' E 001°29'918.6
2017-Aug-09 10:00N 50°60' E 001°41'714.3
2017-Aug-09 09:30N 50°58' E 001°52'0 0.1
2017-Aug-09 09:01N 50°58' E 001°52'0 0.6
2017-Aug-09 08:30N 50°58' E 001°51'714.0
2017-Aug-09 08:00N 50°59' E 001°40'917.0
2017-Aug-09 07:30N 51°02' E 001°28'713.5
2017-Aug-09 06:59N 51°07' E 001°20'0 0.0
2017-Aug-09 06:30N 51°07' E 001°20'0 0.0
2017-Aug-09 06:00N 51°07' E 001°20'3 6.4
2017-Aug-09 05:30N 51°07' E 001°25'918.2
2017-Aug-09 05:00N 51°03' E 001°38'817.0
2017-Aug-09 04:30N 50°58' E 001°50'1 2.6
2017-Aug-09 04:00N 50°58' E 001°52'0 0.0
2017-Aug-09 03:30N 50°58' E 001°52'0 0.0
2017-Aug-09 03:00N 50°58' E 001°52'0 0.0
2017-Aug-09 02:31N 50°58' E 001°52'0 0.0
2017-Aug-09 02:00N 50°58' E 001°52'0 0.0
2017-Aug-09 01:30N 50°58' E 001°52'0 0.0
2017-Aug-09 01:00N 50°58' E 001°52'0 0.0
2017-Aug-09 00:30N 50°58' E 001°52'0 0.1
2017-Aug-09 00:00N 50°58' E 001°52'713.9
2017-Aug-08 23:30N 50°59' E 001°41'918.6
2017-Aug-08 23:01N 51°04' E 001°28'612.1
2017-Aug-08 22:30N 51°07' E 001°20'0 0.0
2017-Aug-08 22:00N 51°07' E 001°20'0 0.5
2017-Aug-08 21:30N 51°07' E 001°20'510.3
2017-Aug-08 21:00N 51°06' E 001°28'918.6
2017-Aug-08 20:30N 51°01' E 001°40'815.3
2017-Aug-08 20:01N 50°58' E 001°52'0 0.2
2017-Aug-08 19:30N 50°58' E 001°52'0 0.0
2017-Aug-08 19:00N 50°58' E 001°52'2 3.2
2017-Aug-08 18:30N 50°58' E 001°49'816.4
2017-Aug-08 18:00N 50°59' E 001°36'917.9
2017-Aug-08 17:30N 51°04' E 001°25'4 7.9
2017-Aug-08 16:57N 51°07' E 001°20'0 0.0
2017-Aug-08 16:30N 51°07' E 001°20'0 0.5
2017-Aug-08 16:00N 51°07' E 001°20'612.8
2017-Aug-08 15:31N 51°06' E 001°30'917.8
2017-Aug-08 15:01N 51°00' E 001°41'712.9
2017-Aug-08 14:30N 50°58' E 001°51'0 0.0
2017-Aug-08 14:00N 50°58' E 001°51'0 0.5
2017-Aug-08 13:30N 50°58' E 001°51'816.2
2017-Aug-08 13:01N 50°60' E 001°38'917.4
2017-Aug-08 12:31N 51°04' E 001°26'5 9.4
2017-Aug-08 11:57N 51°07' E 001°20'0 0.0
2017-Aug-08 11:30N 51°07' E 001°20'0 0.2
2017-Aug-08 10:49N 51°07' E 001°20'  
Track history (hours):
 
Tides and Currents Weather Stations Pressure Air Temp Water Temp Dewpoint Dewpoint Depression Visibility Wind Speed Wind Dir Waves Ship Positions

European Seaway

Operator: P & O Ferries

Last reported at 2017-Aug-18 10:30 UTC. Time now 2017-Aug-18 10:51 UTC.
Position N 51°06' E 001°28'.

Length 179 m; draft 6.1 m.

Type: Passenger vessel. MMSI: 232001040.

Date/timePositionNaut miles runAvg speedWind from/ knotsBaromVisibWave heightAir tempDewpointWater temp
2017-Aug-18 10:30N 51°06' E 001°28'917.1
2017-Aug-18 10:00N 51°01' E 001°38'815.4
2017-Aug-18 09:31N 50°58' E 001°50'1 2.1
2017-Aug-18 09:00N 50°58' E 001°52'0 0.0
2017-Aug-18 08:31N 50°58' E 001°52'510.9
2017-Aug-18 08:01N 50°58' E 001°43'917.1
2017-Aug-18 07:30N 51°02' E 001°31'816.0
2017-Aug-18 07:00N 51°07' E 001°21'1 0.5
2017-Aug-18 05:54N 51°07' E 001°20'2 5.5
2017-Aug-18 05:31N 51°07' E 001°23'714.5
2017-Aug-18 05:01N 51°05' E 001°34'816.3
2017-Aug-18 04:31N 50°59' E 001°43'611.1
2017-Aug-18 04:00N 50°58' E 001°52'0 0.0
2017-Aug-18 03:30N 50°58' E 001°52'0 0.0
2017-Aug-18 03:00N 50°58' E 001°52'0 0.0
2017-Aug-18 02:30N 50°58' E 001°52'0 0.0
2017-Aug-18 02:00N 50°58' E 001°52'0 0.0
2017-Aug-18 01:30N 50°58' E 001°52'0 0.0
2017-Aug-18 01:00N 50°58' E 001°52'0 0.0
2017-Aug-18 00:30N 50°58' E 001°52'1 1.5
2017-Aug-18 00:00N 50°58' E 001°51'816.0
2017-Aug-17 23:30N 50°59' E 001°38'918.0
2017-Aug-17 23:00N 51°05' E 001°26'5 9.7
2017-Aug-17 22:30N 51°07' E 001°20'0 0.0
2017-Aug-17 22:00N 51°07' E 001°20'0 0.6
2017-Aug-17 21:30N 51°07' E 001°20'612.6
2017-Aug-17 21:00N 51°05' E 001°30'917.3
2017-Aug-17 20:30N 51°00' E 001°41'713.3
2017-Aug-17 20:00N 50°58' E 001°51'0 0.5
2017-Aug-17 19:30N 50°58' E 001°52'0 0.0
2017-Aug-17 19:00N 50°58' E 001°52'713.7
2017-Aug-17 18:30N 50°58' E 001°41'816.8
2017-Aug-17 18:00N 51°03' E 001°30'8 6.7
2017-Aug-17 16:52N 51°07' E 001°20'0 0.1
2017-Aug-17 16:30N 51°07' E 001°20'3 5.5
2017-Aug-17 16:00N 51°07' E 001°24'917.3
2017-Aug-17 15:31N 51°02' E 001°36'816.9
2017-Aug-17 15:01N 50°58' E 001°48'2 4.1
2017-Aug-17 14:30N 50°58' E 001°51'0 0.0
2017-Aug-17 14:01N 50°58' E 001°51'2 3.4
2017-Aug-17 13:31N 50°58' E 001°48'815.7
2017-Aug-17 13:01N 51°00' E 001°36'917.6
2017-Aug-17 12:31N 51°06' E 001°25'4 7.5
2017-Aug-17 12:00N 51°07' E 001°20'0 0.0
2017-Aug-17 11:28N 51°07' E 001°20'1 2.8
2017-Aug-17 11:01N 51°07' E 001°22'917.4
2017-Aug-17 10:31N 51°02' E 001°34'917.1
2017-Aug-17 10:00N 50°58' E 001°45'3 7.0
2017-Aug-17 09:30N 50°58' E 001°51'0 0.0
2017-Aug-17 09:00N 50°58' E 001°51'4 8.1
2017-Aug-17 08:30N 50°58' E 001°45'918.2
2017-Aug-17 08:01N 51°02' E 001°32'917.0
2017-Aug-17 07:29N 51°07' E 001°20'0 0.3
2017-Aug-17 07:00N 51°07' E 001°20'0 0.0
2017-Aug-17 06:06N 51°07' E 001°20'0 0.1
2017-Aug-17 05:57N 51°07' E 001°20'3 7.7
2017-Aug-17 05:31N 51°07' E 001°25'917.8
2017-Aug-17 05:01N 51°02' E 001°37'816.1
2017-Aug-17 04:31N 50°58' E 001°49'2 3.4
2017-Aug-17 04:01N 50°58' E 001°52'0 0.0
2017-Aug-17 03:30N 50°58' E 001°52'0 0.0
2017-Aug-17 03:00N 50°58' E 001°52'0 0.0
2017-Aug-17 02:30N 50°58' E 001°52'0 0.0
2017-Aug-17 02:00N 50°58' E 001°52'0 0.0
2017-Aug-17 01:30N 50°58' E 001°52'0 0.0
2017-Aug-17 01:00N 50°58' E 001°52'0 0.0
2017-Aug-17 00:30N 50°58' E 001°52'2 3.9
2017-Aug-17 00:00N 50°58' E 001°49'815.5
2017-Aug-16 23:30N 50°60' E 001°37'918.6
2017-Aug-16 23:00N 51°05' E 001°25'4 6.8
2017-Aug-16 22:30N 51°07' E 001°20'0 0.0
2017-Aug-16 22:00N 51°07' E 001°20'0 1.0
2017-Aug-16 21:30N 51°07' E 001°21'612.6
2017-Aug-16 21:00N 51°06' E 001°31'815.9
2017-Aug-16 20:30N 51°00' E 001°40'714.7
2017-Aug-16 20:01N 50°58' E 001°51'1 1.1
2017-Aug-16 19:30N 50°58' E 001°52'0 0.0
2017-Aug-16 19:00N 50°58' E 001°52'2 4.6
2017-Aug-16 18:30N 50°58' E 001°48'918.7
2017-Aug-16 18:00N 51°01' E 001°34'918.6
2017-Aug-16 17:30N 51°06' E 001°22'2 3.0
2017-Aug-16 17:00N 51°07' E 001°20'0 0.0
2017-Aug-16 16:30N 51°07' E 001°20'2 3.8
2017-Aug-16 16:01N 51°07' E 001°23'816.4
2017-Aug-16 15:30N 51°02' E 001°34'917.9
2017-Aug-16 15:00N 50°58' E 001°46'3 5.9
2017-Aug-16 14:30N 50°58' E 001°51'0 0.0
2017-Aug-16 14:00N 50°58' E 001°51'2 3.6
2017-Aug-16 13:30N 50°58' E 001°48'714.6
2017-Aug-16 13:00N 50°60' E 001°37'816.3
2017-Aug-16 12:30N 51°05' E 001°26'5 9.5
2017-Aug-16 12:00N 51°07' E 001°20'0 0.0
2017-Aug-16 11:29N 51°07' E 001°20'0 0.0
2017-Aug-16 10:58N 51°07' E 001°20'510.9
2017-Aug-16 10:30N 51°07' E 001°28'918.1
2017-Aug-16 10:00N 51°01' E 001°39'816.1
2017-Aug-16 09:30N 50°58' E 001°51'0 0.5
2017-Aug-16 09:00N 50°58' E 001°52'4 4.2
2017-Aug-16 08:00N 50°58' E 001°45'816.7
2017-Aug-16 07:30N 51°01' E 001°33'816.5
2017-Aug-16 07:00N 51°06' E 001°23'2 3.7
2017-Aug-16 06:30N 51°07' E 001°20'0 0.0
2017-Aug-16 06:00N 51°07' E 001°20'2 4.2
2017-Aug-16 05:31N 51°07' E 001°23'917.8
2017-Aug-16 05:01N 51°03' E 001°36'816.9
2017-Aug-16 04:30N 50°58' E 001°47'3 5.8
2017-Aug-16 04:01N 50°58' E 001°52'0 0.0
2017-Aug-16 03:31N 50°58' E 001°52'0 0.0
2017-Aug-16 03:01N 50°58' E 001°52'0 0.0
2017-Aug-16 02:31N 50°58' E 001°52'0 0.0
2017-Aug-16 02:01N 50°58' E 001°52'0 0.0
2017-Aug-16 01:31N 50°58' E 001°52'0 0.0
2017-Aug-16 01:01N 50°58' E 001°52'0 0.0
2017-Aug-16 00:31N 50°58' E 001°52'510.4
2017-Aug-16 00:00N 50°58' E 001°43'917.1
2017-Aug-15 23:30N 51°01' E 001°31'917.5
2017-Aug-15 23:00N 51°07' E 001°21'0 0.9
2017-Aug-15 22:30N 51°07' E 001°20'0 0.0
2017-Aug-15 22:00N 51°07' E 001°20'2 4.5
2017-Aug-15 21:30N 51°07' E 001°24'4 7.5
2017-Aug-15 21:00N 51°05' E 001°28'918.7
2017-Aug-15 20:30N 50°60' E 001°40'714.4
2017-Aug-15 20:01N 50°58' E 001°52'0 0.2
2017-Aug-15 19:30N 50°58' E 001°52'0 0.0
2017-Aug-15 19:00N 50°58' E 001°52'2 3.0
2017-Aug-15 18:31N 50°58' E 001°49'917.3
2017-Aug-15 18:00N 50°60' E 001°36'918.0
2017-Aug-15 17:31N 51°06' E 001°25'3 6.8
2017-Aug-15 17:00N 51°07' E 001°20'0 0.0
2017-Aug-15 16:27N 51°07' E 001°20'1 2.5
2017-Aug-15 16:00N 51°07' E 001°22'713.2
2017-Aug-15 15:30N 51°04' E 001°31'918.3
2017-Aug-15 15:00N 50°59' E 001°43'510.1
2017-Aug-15 14:30N 50°58' E 001°51'0 0.0
2017-Aug-15 14:00N 50°58' E 001°51'0 0.0
2017-Aug-15 13:30N 50°58' E 001°51'510.7
2017-Aug-15 13:00N 50°58' E 001°42'816.4
2017-Aug-15 12:30N 51°01' E 001°31'917.2
2017-Aug-15 12:00N 51°07' E 001°20'1 1.8
2017-Aug-15 11:30N 51°07' E 001°20'0 0.0
2017-Aug-15 11:00N 51°07' E 001°20'2 4.3
2017-Aug-15 10:30N 51°07' E 001°23'816.1
2017-Aug-15 10:00N 51°03' E 001°34'816.6
2017-Aug-15 09:31N 50°58' E 001°45'4 7.1
2017-Aug-15 09:00N 50°58' E 001°51'0 0.0
2017-Aug-15 08:31N 50°58' E 001°51'4 8.1
2017-Aug-15 08:00N 50°58' E 001°45'918.2
2017-Aug-15 07:30N 51°02' E 001°31'917.9
2017-Aug-15 07:00N 51°07' E 001°20'1 0.8
2017-Aug-15 06:20N 51°07' E 001°20'0 0.0
2017-Aug-15 06:00N 51°07' E 001°20'4 7.8
2017-Aug-15 05:31N 51°06' E 001°26'917.7
2017-Aug-15 05:01N 51°02' E 001°38'815.8
2017-Aug-15 04:31N 50°58' E 001°49'1 2.6
2017-Aug-15 03:58N 50°58' E 001°52'0 0.0
2017-Aug-15 03:28N 50°58' E 001°52'0 0.0
2017-Aug-15 02:58N 50°58' E 001°52'0 0.0
2017-Aug-15 02:28N 50°58' E 001°52'0 0.0
2017-Aug-15 01:58N 50°58' E 001°52'0 0.0
2017-Aug-15 01:28N 50°58' E 001°52'0 0.0
2017-Aug-15 00:58N 50°58' E 001°52'0 0.0
2017-Aug-15 00:28N 50°58' E 001°52'0 0.0
2017-Aug-15 00:00N 50°58' E 001°52'0 0.0
2017-Aug-14 23:28N 50°58' E 001°52'0 0.0
2017-Aug-14 22:58N 50°58' E 001°52'0 0.0
2017-Aug-14 22:28N 50°58' E 001°52'0 0.0
2017-Aug-14 21:58N 50°58' E 001°52'0 0.0
2017-Aug-14 21:28N 50°58' E 001°52'0 0.0
2017-Aug-14 20:55N 50°58' E 001°52'0 0.0
2017-Aug-14 20:28N 50°58' E 001°52'0 0.0
2017-Aug-14 19:58N 50°58' E 001°52'0 0.0
2017-Aug-14 19:25N 50°58' E 001°52'0 0.0
2017-Aug-14 18:58N 50°58' E 001°52'1 2.4
2017-Aug-14 18:30N 50°58' E 001°50'815.7
2017-Aug-14 18:01N 50°60' E 001°38'917.2
2017-Aug-14 17:31N 51°05' E 001°27'5 9.8
2017-Aug-14 17:00N 51°07' E 001°20'0 0.0
2017-Aug-14 16:30N 51°07' E 001°20'1 2.3
2017-Aug-14 16:00N 51°07' E 001°22'917.2
2017-Aug-14 15:30N 51°03' E 001°34'917.4
2017-Aug-14 15:01N 50°58' E 001°45'4 7.1
2017-Aug-14 14:30N 50°58' E 001°51'0 0.0
2017-Aug-14 14:00N 50°58' E 001°51'2 4.9
2017-Aug-14 13:30N 50°58' E 001°47'815.5
2017-Aug-14 13:00N 50°59' E 001°35'816.4
2017-Aug-14 12:30N 51°05' E 001°26'4 3.4
2017-Aug-14 11:16N 51°07' E 001°20'0 0.5
2017-Aug-14 11:00N 51°07' E 001°20'917.4
2017-Aug-14 10:31N 51°04' E 001°33'918.3
2017-Aug-14 10:01N 50°58' E 001°44'5 9.2
2017-Aug-14 09:30N 50°58' E 001°52'0 0.0
2017-Aug-14 09:00N 50°58' E 001°52'0 0.0
2017-Aug-14 08:30N 50°58' E 001°52'0 0.2
2017-Aug-14 07:48N 50°58' E 001°52'0 0.0
2017-Aug-14 07:30N 50°58' E 001°52'0 0.0
2017-Aug-14 07:00N 50°58' E 001°52'0 0.0
2017-Aug-14 06:27N 50°58' E 001°52'0 0.0
2017-Aug-14 06:00N 50°58' E 001°52'0 0.0
2017-Aug-14 05:30N 50°58' E 001°52'0 0.0
2017-Aug-14 05:00N 50°58' E 001°52'0 0.0
2017-Aug-14 04:31N 50°58' E 001°52'0 0.0
2017-Aug-14 04:00N 50°58' E 001°52'0 0.0
2017-Aug-14 03:31N 50°58' E 001°52'0 0.0
2017-Aug-14 03:01N 50°58' E 001°52'0 0.0
2017-Aug-14 02:31N 50°58' E 001°52'0 0.0
2017-Aug-14 02:01N 50°58' E 001°52'0 0.0
2017-Aug-14 01:31N 50°58' E 001°52'0 0.0
2017-Aug-14 01:01N 50°58' E 001°52'0 0.0
2017-Aug-14 00:31N 50°58' E 001°52'0 0.0
2017-Aug-14 00:01N 50°58' E 001°52'0 0.0
2017-Aug-13 23:30N 50°58' E 001°52'0 0.0
2017-Aug-13 23:01N 50°58' E 001°52'0 0.0
2017-Aug-13 22:31N 50°58' E 001°52'0 0.0
2017-Aug-13 22:00N 50°58' E 001°52'0 0.0
2017-Aug-13 21:31N 50°58' E 001°52'0 0.0
2017-Aug-13 21:01N 50°58' E 001°52'0 0.0
2017-Aug-13 20:30N 50°58' E 001°52'0 0.0
2017-Aug-13 20:00N 50°58' E 001°52'0 0.0
2017-Aug-13 19:31N 50°58' E 001°52'0 0.2
2017-Aug-13 19:01N 50°58' E 001°52'0 0.6
2017-Aug-13 18:31N 50°58' E 001°51'815.9
2017-Aug-13 18:00N 50°58' E 001°39'917.4
2017-Aug-13 17:30N 51°03' E 001°27'612.2
2017-Aug-13 17:00N 51°07' E 001°20'0 0.0
2017-Aug-13 16:28N 51°07' E 001°20'2 5.2
2017-Aug-13 16:00N 51°07' E 001°24'816.7
2017-Aug-13 15:30N 51°04' E 001°36'816.9
2017-Aug-13 15:00N 50°58' E 001°46'4 7.2
2017-Aug-13 14:30N 50°58' E 001°52'0 0.0
2017-Aug-13 14:00N 50°58' E 001°52'1 1.2
2017-Aug-13 13:30N 50°58' E 001°51'815.8
2017-Aug-13 13:00N 50°59' E 001°38'816.6
2017-Aug-13 12:30N 51°04' E 001°28'610.3
2017-Aug-13 11:56N 51°07' E 001°20'0 0.0
2017-Aug-13 11:30N 51°07' E 001°20'0 0.0
2017-Aug-13 11:00N 51°07' E 001°20'510.1
2017-Aug-13 10:30N 51°06' E 001°27'816.5
2017-Aug-13 10:00N 51°01' E 001°38'815.7
2017-Aug-13 09:31N 50°58' E 001°50'1 2.2
2017-Aug-13 09:00N 50°58' E 001°52'0 0.0
2017-Aug-13 08:30N 50°58' E 001°52'0 0.5
2017-Aug-13 08:00N 50°58' E 001°52'0 0.0
2017-Aug-13 07:31N 50°58' E 001°52'0 0.0
2017-Aug-13 07:00N 50°58' E 001°52'0 0.0
2017-Aug-13 06:30N 50°58' E 001°52'0 0.0
2017-Aug-13 06:00N 50°58' E 001°52'0 0.0
2017-Aug-13 05:30N 50°58' E 001°52'0 0.0
2017-Aug-13 05:00N 50°58' E 001°52'0 0.0
2017-Aug-13 04:30N 50°58' E 001°52'0 0.0
2017-Aug-13 04:00N 50°58' E 001°52'0 0.0
2017-Aug-13 03:30N 50°58' E 001°52'0 0.0
2017-Aug-13 03:00N 50°58' E 001°52'0 0.0
2017-Aug-13 02:30N 50°58' E 001°52'0 0.0
2017-Aug-13 02:00N 50°58' E 001°52'0 0.0
2017-Aug-13 01:30N 50°58' E 001°52'0 0.0
2017-Aug-13 01:00N 50°58' E 001°52'0 0.0
2017-Aug-13 00:30N 50°58' E 001°52'0 0.0
2017-Aug-13 00:00N 50°58' E 001°52'0 0.0
2017-Aug-12 23:30N 50°58' E 001°52'0 0.0
2017-Aug-12 23:00N 50°58' E 001°52'0 0.0
2017-Aug-12 22:30N 50°58' E 001°52'0 0.0
2017-Aug-12 22:00N 50°58' E 001°52'0 0.0
2017-Aug-12 21:30N 50°58' E 001°52'0 0.0
2017-Aug-12 21:00N 50°58' E 001°52'0 0.0
2017-Aug-12 20:30N 50°58' E 001°52'0 0.0
2017-Aug-12 20:00N 50°58' E 001°52'0 0.5
2017-Aug-12 19:30N 50°58' E 001°52'1 2.6
2017-Aug-12 19:00N 50°58' E 001°50'611.8
2017-Aug-12 18:31N 50°59' E 001°40'918.3
2017-Aug-12 18:01N 51°04' E 001°29'610.7
2017-Aug-12 17:26N 51°07' E 001°20'0 0.0
2017-Aug-12 16:52N 51°07' E 001°20'0 0.0
2017-Aug-12 16:30N 51°07' E 001°20'1 1.3
2017-Aug-12 16:00N 51°07' E 001°21'815.9
2017-Aug-12 15:30N 51°04' E 001°33'816.8
2017-Aug-12 15:01N 50°59' E 001°43'5 9.9
2017-Aug-12 14:30N 50°58' E 001°51'0 0.0
2017-Aug-12 14:00N 50°58' E 001°51'0 0.0
2017-Aug-12 13:30N 50°58' E 001°51'4 7.2
2017-Aug-12 13:00N 50°58' E 001°45'917.9
2017-Aug-12 12:31N 51°01' E 001°32'917.6
2017-Aug-12 12:00N 51°07' E 001°21'1 1.6
2017-Aug-12 11:29N 51°07' E 001°20'0 0.0
2017-Aug-12 10:59N 51°07' E 001°20'4 8.3
2017-Aug-12 10:30N 51°06' E 001°26'918.3
2017-Aug-12 10:00N 51°01' E 001°38'816.9
2017-Aug-12 09:30N 50°58' E 001°51'1 1.3
2017-Aug-12 09:00N 50°58' E 001°52'0 0.0
2017-Aug-12 08:30N 50°58' E 001°52'3 6.9
2017-Aug-12 08:01N 50°58' E 001°46'714.3
2017-Aug-12 07:30N 51°01' E 001°36'816.3
2017-Aug-12 07:00N 51°05' E 001°25'4 7.4
2017-Aug-12 06:30N 51°07' E 001°20'0 0.0
2017-Aug-12 05:56N 51°07' E 001°20'4 9.2
2017-Aug-12 05:31N 51°07' E 001°26'917.1
2017-Aug-12 05:01N 51°02' E 001°37'816.2
2017-Aug-12 04:30N 50°58' E 001°49'2 3.3
2017-Aug-12 04:00N 50°58' E 001°52'0 0.0
2017-Aug-12 03:30N 50°58' E 001°52'0 0.0
2017-Aug-12 03:00N 50°58' E 001°52'0 0.0
2017-Aug-12 02:30N 50°58' E 001°52'0 0.0
2017-Aug-12 02:00N 50°58' E 001°52'0 0.0
2017-Aug-12 01:30N 50°58' E 001°52'0 0.0
2017-Aug-12 01:00N 50°58' E 001°52'0 0.0
2017-Aug-12 00:30N 50°58' E 001°52'0 0.0
2017-Aug-12 00:00N 50°58' E 001°52'713.8
2017-Aug-11 23:31N 50°58' E 001°41'917.6
2017-Aug-11 23:00N 51°03' E 001°29'713.8
2017-Aug-11 22:30N 51°07' E 001°20'0 0.0
2017-Aug-11 22:00N 51°07' E 001°20'0 0.3
2017-Aug-11 21:30N 51°07' E 001°20'815.7
2017-Aug-11 21:00N 51°04' E 001°31'918.1
2017-Aug-11 20:30N 50°59' E 001°43'510.8
2017-Aug-11 20:00N 50°58' E 001°52'0 0.0
2017-Aug-11 19:30N 50°58' E 001°52'0 0.0
2017-Aug-11 19:00N 50°58' E 001°52'3 5.8
2017-Aug-11 18:30N 50°58' E 001°47'917.1
2017-Aug-11 18:00N 51°01' E 001°34'918.5
2017-Aug-11 17:30N 51°06' E 001°22'2 3.7
2017-Aug-11 17:00N 51°07' E 001°20'0 0.0
2017-Aug-11 16:29N 51°07' E 001°20'2 4.8
2017-Aug-11 16:01N 51°07' E 001°24'816.7
2017-Aug-11 15:31N 51°02' E 001°35'816.1
2017-Aug-11 15:01N 50°58' E 001°46'3 6.5
2017-Aug-11 14:30N 50°58' E 001°51'0 0.1
2017-Aug-11 13:30N 50°58' E 001°51'917.6
2017-Aug-11 13:00N 50°59' E 001°37'918.0
2017-Aug-11 12:30N 51°04' E 001°25'5 8.3
2017-Aug-11 11:55N 51°07' E 001°20'0 0.0
2017-Aug-11 11:29N 51°07' E 001°20'0 0.1
2017-Aug-11 11:00N 51°07' E 001°20'611.6
2017-Aug-11 10:31N 51°05' E 001°29'816.2
2017-Aug-11 10:00N 51°00' E 001°39'816.1
2017-Aug-11 09:30N 50°58' E 001°51'0 0.9
2017-Aug-11 09:00N 50°58' E 001°52'0 0.2
2017-Aug-11 08:30N 50°58' E 001°52'713.1
2017-Aug-11 08:00N 50°58' E 001°41'917.5
2017-Aug-11 07:30N 51°03' E 001°29'714.6
2017-Aug-11 07:00N 51°07' E 001°20'0 0.0
2017-Aug-11 06:26N 51°07' E 001°20'0 0.3
2017-Aug-11 06:00N 51°07' E 001°20'815.0
2017-Aug-11 05:31N 51°04' E 001°31'816.9
2017-Aug-11 05:01N 50°59' E 001°42'611.3
2017-Aug-11 04:27N 50°58' E 001°52'0 0.0
2017-Aug-11 04:00N 50°58' E 001°52'0 0.0
2017-Aug-11 03:27N 50°58' E 001°52'0 0.0
2017-Aug-11 03:00N 50°58' E 001°52'0 0.0
2017-Aug-11 02:30N 50°58' E 001°52'0 0.0
2017-Aug-11 02:00N 50°58' E 001°52'0 0.0
2017-Aug-11 01:30N 50°58' E 001°52'0 0.0
2017-Aug-11 01:00N 50°58' E 001°52'0 0.0
2017-Aug-11 00:30N 50°58' E 001°52'0 0.4
2017-Aug-11 00:00N 50°58' E 001°51'817.0
2017-Aug-10 23:30N 50°58' E 001°38'918.1
2017-Aug-10 23:01N 51°02' E 001°25'611.8
2017-Aug-10 22:30N 51°07' E 001°20'0 0.0
2017-Aug-10 22:00N 51°07' E 001°20'0 0.3
2017-Aug-10 21:29N 51°07' E 001°20'511.2
2017-Aug-10 21:00N 51°06' E 001°29'918.1
2017-Aug-10 20:31N 51°00' E 001°40'714.9
2017-Aug-10 20:00N 50°58' E 001°51'0 0.1
2017-Aug-10 19:30N 50°58' E 001°51'0 0.0
2017-Aug-10 19:00N 50°58' E 001°51'4 7.4
2017-Aug-10 18:31N 50°58' E 001°45'816.4
2017-Aug-10 18:00N 51°01' E 001°34'917.9
2017-Aug-10 17:30N 51°07' E 001°22'1 2.7
2017-Aug-10 17:00N 51°07' E 001°20'0 0.0
2017-Aug-10 16:30N 51°07' E 001°20'1 1.4
2017-Aug-10 16:00N 51°07' E 001°21'816.8
2017-Aug-10 15:31N 51°04' E 001°33'917.0
2017-Aug-10 15:01N 50°59' E 001°44'4 8.6
2017-Aug-10 14:30N 50°58' E 001°51'0 0.0
2017-Aug-10 14:00N 50°58' E 001°51'2 4.7
2017-Aug-10 13:31N 50°58' E 001°47'917.1
2017-Aug-10 13:00N 50°60' E 001°34'816.0
2017-Aug-10 12:30N 51°05' E 001°24'4 4.7
2017-Aug-10 11:45N 51°07' E 001°20'0 0.0
2017-Aug-10 11:26N 51°07' E 001°20'0 0.3
2017-Aug-10 10:59N 51°07' E 001°20'613.3
2017-Aug-10 10:31N 51°04' E 001°29'918.3
2017-Aug-10 10:01N 50°59' E 001°41'612.8
2017-Aug-10 09:30N 50°58' E 001°51'0 0.3
2017-Aug-10 09:00N 50°58' E 001°52'0 0.1
2017-Aug-10 08:31N 50°58' E 001°52'611.8
2017-Aug-10 08:00N 50°58' E 001°42'816.5
2017-Aug-10 07:30N 51°02' E 001°31'816.8
2017-Aug-10 07:00N 51°07' E 001°20'0 0.3
2017-Aug-10 06:30N 51°07' E 001°20'0 0.0
2017-Aug-10 06:00N 51°07' E 001°20'612.4
2017-Aug-10 05:30N 51°06' E 001°30'918.1
2017-Aug-10 05:00N 51°01' E 001°42'612.6
2017-Aug-10 04:31N 50°58' E 001°51'0 0.4
2017-Aug-10 04:00N 50°58' E 001°51'0 0.0
2017-Aug-10 03:30N 50°58' E 001°51'0 0.0
2017-Aug-10 03:00N 50°58' E 001°51'0 0.0
2017-Aug-10 02:30N 50°58' E 001°51'0 0.0
2017-Aug-10 02:00N 50°58' E 001°51'0 0.0
2017-Aug-10 01:30N 50°58' E 001°51'0 0.0
2017-Aug-10 01:00N 50°58' E 001°51'0 0.0
2017-Aug-10 00:30N 50°58' E 001°51'0 0.0
2017-Aug-10 00:00N 50°58' E 001°51'612.5
2017-Aug-09 23:30N 50°58' E 001°41'918.6
2017-Aug-09 23:00N 51°03' E 001°29'713.7
2017-Aug-09 22:30N 51°07' E 001°20'0 0.0
2017-Aug-09 21:59N 51°07' E 001°20'0 0.3
2017-Aug-09 21:30N 51°07' E 001°20'815.6
2017-Aug-09 21:01N 51°04' E 001°31'918.8
2017-Aug-09 20:31N 50°59' E 001°44'5 9.9
2017-Aug-09 20:00N 50°58' E 001°51'0 0.0
2017-Aug-09 19:30N 50°58' E 001°51'0 0.0
2017-Aug-09 19:00N 50°58' E 001°51'4 7.7
2017-Aug-09 18:31N 50°58' E 001°45'917.2
2017-Aug-09 18:01N 51°01' E 001°33'918.5
2017-Aug-09 17:31N 51°07' E 001°21'1 1.8
2017-Aug-09 16:59N 51°07' E 001°20'0 0.2
2017-Aug-09 16:31N 51°07' E 001°20'714.1
2017-Aug-09 16:00N 51°05' E 001°31'917.6
2017-Aug-09 15:30N 50°60' E 001°42'611.8
2017-Aug-09 15:00N 50°58' E 001°51'0 0.0
2017-Aug-09 14:30N 50°58' E 001°51'0 0.0
2017-Aug-09 14:00N 50°58' E 001°51'1 2.0
2017-Aug-09 13:30N 50°58' E 001°49'714.2
2017-Aug-09 13:01N 50°60' E 001°39'918.6
2017-Aug-09 12:31N 51°04' E 001°26'5 7.3
2017-Aug-09 11:53N 51°07' E 001°20'0 0.0
2017-Aug-09 11:13N 51°07' E 001°20'0 0.2
2017-Aug-09 10:58N 51°07' E 001°20'612.2
2017-Aug-09 10:31N 51°05' E 001°29'918.6
2017-Aug-09 10:00N 50°60' E 001°41'714.3
2017-Aug-09 09:30N 50°58' E 001°52'0 0.1
2017-Aug-09 09:01N 50°58' E 001°52'0 0.6
2017-Aug-09 08:30N 50°58' E 001°51'714.0
2017-Aug-09 08:00N 50°59' E 001°40'917.0
2017-Aug-09 07:30N 51°02' E 001°28'713.5
2017-Aug-09 06:59N 51°07' E 001°20'0 0.0
2017-Aug-09 06:30N 51°07' E 001°20'0 0.0
2017-Aug-09 06:00N 51°07' E 001°20'3 6.4
2017-Aug-09 05:30N 51°07' E 001°25'918.2
2017-Aug-09 05:00N 51°03' E 001°38'817.0
2017-Aug-09 04:30N 50°58' E 001°50'1 2.6
2017-Aug-09 04:00N 50°58' E 001°52'0 0.0
2017-Aug-09 03:30N 50°58' E 001°52'0 0.0
2017-Aug-09 03:00N 50°58' E 001°52'0 0.0
2017-Aug-09 02:31N 50°58' E 001°52'0 0.0
2017-Aug-09 02:00N 50°58' E 001°52'0 0.0
2017-Aug-09 01:30N 50°58' E 001°52'0 0.0
2017-Aug-09 01:00N 50°58' E 001°52'0 0.0
2017-Aug-09 00:30N 50°58' E 001°52'0 0.1
2017-Aug-09 00:00N 50°58' E 001°52'713.9
2017-Aug-08 23:30N 50°59' E 001°41'918.6
2017-Aug-08 23:01N 51°04' E 001°28'612.1
2017-Aug-08 22:30N 51°07' E 001°20'0 0.0
2017-Aug-08 22:00N 51°07' E 001°20'0 0.5
2017-Aug-08 21:30N 51°07' E 001°20'510.3
2017-Aug-08 21:00N 51°06' E 001°28'918.6
2017-Aug-08 20:30N 51°01' E 001°40'815.3
2017-Aug-08 20:01N 50°58' E 001°52'0 0.2
2017-Aug-08 19:30N 50°58' E 001°52'0 0.0
2017-Aug-08 19:00N 50°58' E 001°52'2 3.2
2017-Aug-08 18:30N 50°58' E 001°49'816.4
2017-Aug-08 18:00N 50°59' E 001°36'917.9
2017-Aug-08 17:30N 51°04' E 001°25'4 7.9
2017-Aug-08 16:57N 51°07' E 001°20'0 0.0
2017-Aug-08 16:30N 51°07' E 001°20'0 0.5
2017-Aug-08 16:00N 51°07' E 001°20'612.8
2017-Aug-08 15:31N 51°06' E 001°30'917.8
2017-Aug-08 15:01N 51°00' E 001°41'712.9
2017-Aug-08 14:30N 50°58' E 001°51'0 0.0
2017-Aug-08 14:00N 50°58' E 001°51'0 0.5
2017-Aug-08 13:30N 50°58' E 001°51'816.2
2017-Aug-08 13:01N 50°60' E 001°38'917.4
2017-Aug-08 12:31N 51°04' E 001°26'5 9.4
2017-Aug-08 11:57N 51°07' E 001°20'0 0.0
2017-Aug-08 11:30N 51°07' E 001°20'0 0.2
2017-Aug-08 10:49N 51°07' E 001°20'  

Dump ship's entire track history